עמוד ראשי
METAR-TAF:

METAR-TAF

שדות תעופה :

Wekweeti, הטריטוריות הצפון-מערביות, קנדה

קו רוחב: 64-11-27N, קו אורך: 114-04-36W, גובה: 368מטר

תצפית מזג אוויר נוכחית

הדו"ח נערך לפני 1 שעות ו 18דקות, בשעה 15:00 UTC
רוח 8קשר מכיוון צפון/צפון-מזרח
טמפרטורת 6 צלסיוס
לחות 56%
לחץ 1011 hPa
ראות: 14.5קילומטר
שמיים נקיים

METAR: CYWE 171500Z AUTO 02008KT 9SM CLR 06/M02 A2985 RMK SLP130

זמן: 10:18 (16:18 UTC)

תחזית

הדו"ח נערך לפני 3 שעות ו 38דקות, בשעה 12:40 UTC
תחזית בתוקף מ 17 ב 13 UTC עד 18 ב 01 UTC
רוח 8קשר מכיוון צפון/צפון-מזרח
ראות: 10קילומטר
מעט עננים בגובה 4000רגל
מ 17 ב 2000UTC
רוח 8קשר מכיוון צפון-מערב
ראות: 10קילומטר
עננים בינוניים בגובה 6000רגל

TAF: CYWE 171240Z 1713/1801 02008KT P6SM FEW040 FM172000 32008KT P6SM BKN060 RMK FCST BASED ON AUTO OBS. NXT FCST BY 171900Z

תצפיות ותחזיות מזג אוויר לגבי יותר מ- 4,000 שדות תעופה ברחבי העולם. דוחות METAR ו- TAF.

התחנות הזמינות מסומנות בנקודות צהובות ואדומות על גבי המפה.

העבר את העכבר לנקודה הצבעונית על מנת לראות את שם התחנה.

לאחר מכן, לחץ כדי לראות את תוכן ואת תחזיות מזג האוויר.

כדי לשנות את המפה: לחץ על הכפתורים הירוקים עם הפלוס השחור כדי להתקרב; על הכפתור הירוק עם המקף כדי להתרחק; או בחיצים הירוקים למפות סמוכות.


METAR-TAF: